Accueil
METAR-TAF:

METAR-TAF

Aéroports :

Aéroport d'Ajaccio-Napoléon-Bonaparte

Ajaccio, France

latitude: 41-55N, longitude: 008-48E, altitude: 6 m

Observation

Le bulletin a été fait il y a 49 minutes, à 21:30 UTC
Vent 5 kt de nord/nord-est, variant entre nord et est/nord-est
Température 13°C
Humidité 72%
Pression 1020 hPa
Visibilité 10 km ou plus
pas de nuages en-dessous de 1500 mètres et pas de cumulonimbus.

METAR: LFKJ 232130Z AUTO 03005KT 360V060 CAVOK 13/08 Q1020 NOSIG

Heure: 00:19 (22:19 UTC)

Prévision

Le bulletin a été fait il y a 2 heures et 19 minutes, à 20:00 UTC
Prévision valable du 23 à 21 UTC au 24 à 21 UTC
Vent 5 kt de nord-est
Visibilité 10 km ou plus
pas de nuages en-dessous de 1500 mètres et pas de cumulonimbus.
Evoluant progressivement
du 24 à 08 UTC au 24 à 10 UTC
Vent 8 kt de ouest/sud-ouest

TAF: LFKJ 232000Z 2321/2421 05005KT CAVOK BECMG 2408/2410 24008KT

Observations et prévisions météorologiques de plus de 4000 aéroports (messages METAR et TAF).

Les stations disponibles sont représentées par des disques jaunes et rouges sur la carte.

Passer la souris dessus pour voir le nom de la station.

Cliquer dessus pour voir les observations et prévisions météorologiques.

Pour changer de carte: cliquez sur les boutons verts avec une croix noire pour zoomer, sur le bouton vert avec un tiret pour effectuer un zoom arrière, ou sur les flèches vertes pour les cartes adjacentes.


METAR-TAF: